Time;durP1;ratioP1;P1;durP2;ratioP2;P2;SDS_P1;SDS_P2;PMS_P1;PMS_P2;Temp;Humidity;BMP_temperature;BMP_pressure;BME280_temperature;BME280_humidity;BME280_pressure;Samples;Min_cycle;Max_cycle;Signal;HPM_P1;HPM_P2
2020/12/13 00:01:09;;;;;;;13.52;8.18;;;;;;;3.98;100.00;97728.63;5034914;28;45431;-85
2020/12/13 00:03:34;;;;;;;13.35;8.93;;;;;;;4.01;100.00;97733.63;5019269;28;45549;-85
2020/12/13 00:05:59;;;;;;;20.48;13.60;;;;;;;4.03;100.00;97732.56;5019357;28;46063;-84
2020/12/13 00:08:26;;;;;;;19.45;12.90;;;;;;;4.03;100.00;97742.25;5034565;28;45726;-85
2020/12/13 00:10:51;;;;;;;16.73;10.20;;;;;;;4.04;100.00;97743.91;5019810;28;45311;-85
2020/12/13 00:13:17;;;;;;;12.70;7.90;;;;;;;3.94;100.00;97752.56;5019209;28;45483;-85
2020/12/13 00:15:42;;;;;;;14.38;8.75;;;;;;;4.01;100.00;97749.44;5034573;28;47305;-85
2020/12/13 00:18:08;;;;;;;10.43;6.20;;;;;;;4.01;100.00;97747.66;5017562;28;45555;-85
2020/12/13 00:20:33;;;;;;;10.40;7.10;;;;;;;4.00;100.00;97743.34;5019419;28;45257;-85
2020/12/13 00:22:59;;;;;;;10.55;7.45;;;;;;;4.05;100.00;97751.69;5034115;28;45334;-85
2020/12/13 00:25:24;;;;;;;10.18;6.55;;;;;;;4.09;100.00;97750.47;5019196;28;45245;-85
2020/12/13 00:27:50;;;;;;;10.48;6.35;;;;;;;4.12;100.00;97761.72;5034462;28;45682;-85
2020/12/13 00:30:15;;;;;;;8.23;5.72;;;;;;;4.02;100.00;97761.63;5013973;28;45444;-85
2020/12/13 00:32:40;;;;;;;23.65;15.40;;;;;;;4.05;100.00;97767.47;5009926;28;45246;-85
2020/12/13 00:35:06;;;;;;;23.92;15.65;;;;;;;4.03;100.00;97763.28;5018901;28;45285;-85
2020/12/13 00:37:31;;;;;;;24.98;16.63;;;;;;;4.03;100.00;97769.41;5018825;28;45158;-84
2020/12/13 00:39:57;;;;;;;29.88;18.35;;;;;;;3.98;100.00;97768.94;5018704;28;45466;-84
2020/12/13 00:42:22;;;;;;;27.63;17.75;;;;;;;3.93;100.00;97769.31;5019015;28;45272;-85
2020/12/13 00:44:48;;;;;;;22.55;14.50;;;;;;;3.94;100.00;97764.88;5018494;28;45331;-85
2020/12/13 00:47:13;;;;;;;20.00;12.48;;;;;;;3.98;100.00;97768.94;5017585;28;45837;-84
2020/12/13 00:49:39;;;;;;;20.77;12.93;;;;;;;3.98;100.00;97771.56;5018851;28;45518;-85
2020/12/13 00:52:05;;;;;;;14.85;10.60;;;;;;;4.00;100.00;97767.03;5018661;28;45364;-85
2020/12/13 00:54:32;;;;;;;12.77;8.63;;;;;;;4.04;100.00;97775.47;5016359;28;48087;-85
2020/12/13 00:56:57;;;;;;;11.40;7.70;;;;;;;4.07;100.00;97767.34;5017419;28;45852;-85
2020/12/13 00:59:23;;;;;;;10.25;6.80;;;;;;;4.08;100.00;97767.22;5033712;28;45409;-85
2020/12/13 01:01:48;;;;;;;14.20;9.07;;;;;;;4.02;100.00;97764.25;5018521;28;45541;-85
2020/12/13 01:04:14;;;;;;;11.82;7.70;;;;;;;4.04;100.00;97772.84;5018196;28;45268;-85
2020/12/13 01:06:39;;;;;;;13.07;8.10;;;;;;;4.06;100.00;97768.28;5018476;28;45432;-85
2020/12/13 01:09:05;;;;;;;10.00;6.72;;;;;;;4.00;100.00;97769.66;5018577;28;45272;-85
2020/12/13 01:11:33;;;;;;;7.32;4.53;;;;;;;4.01;100.00;97768.69;5018703;28;45265;-85
2020/12/13 01:14:00;;;;;;;6.35;4.35;;;;;;;4.01;100.00;97771.31;5033739;28;47433;-85
2020/12/13 01:16:27;;;;;;;7.15;3.67;;;;;;;4.08;100.00;97787.44;5018097;28;45420;-84
2020/12/13 01:18:53;;;;;;;6.07;3.63;;;;;;;4.05;100.00;97791.16;5018444;28;45257;-85
2020/12/13 01:21:20;;;;;;;6.95;4.40;;;;;;;3.89;100.00;97802.09;5017873;28;45347;-84
2020/12/13 01:23:46;;;;;;;8.70;3.97;;;;;;;3.97;100.00;97796.19;5033550;28;48112;-85
2020/12/13 01:26:13;;;;;;;8.77;5.75;;;;;;;4.04;100.00;97809.69;5016871;28;45283;-84
2020/12/13 01:28:39;;;;;;;31.02;19.10;;;;;;;3.97;100.00;97817.25;5018510;28;45228;-85
2020/12/13 01:31:04;;;;;;;35.05;22.27;;;;;;;3.74;100.00;97812.06;5006043;28;45269;-85
2020/12/13 01:33:30;;;;;;;38.25;22.77;;;;;;;3.92;100.00;97811.50;5015456;28;47662;-85
2020/12/13 01:35:55;;;;;;;15.85;10.45;;;;;;;3.96;100.00;97820.00;5033125;28;45301;-84
2020/12/13 01:38:21;;;;;;;9.43;5.57;;;;;;;3.96;100.00;97818.19;5017872;28;45334;-85
2020/12/13 01:40:46;;;;;;;7.00;4.85;;;;;;;4.01;100.00;97820.47;5018054;28;45359;-85
2020/12/13 01:43:11;;;;;;;8.07;4.65;;;;;;;3.97;100.00;97826.94;5032903;28;47012;-84
2020/12/13 01:45:37;;;;;;;5.03;3.30;;;;;;;4.02;100.00;97828.25;5016592;28;45348;-85
2020/12/13 01:48:03;;;;;;;7.78;3.08;;;;;;;4.07;100.00;97835.75;5017910;28;45323;-85
2020/12/13 01:53:13;;;;;;;6.85;4.25;;;;;;;4.03;100.00;97829.06;5017347;28;45288;-85
2020/12/13 01:55:41;;;;;;;8.27;4.90;;;;;;;4.05;100.00;97835.91;5017808;28;45404;-85
2020/12/13 01:58:11;;;;;;;14.55;9.05;;;;;;;4.11;100.00;97839.00;5033155;28;45280;-85
2020/12/13 02:00:37;;;;;;;21.05;13.32;;;;;;;4.11;100.00;97839.81;5017772;28;45333;-85
2020/12/13 02:03:06;;;;;;;21.17;14.07;;;;;;;4.03;100.00;97837.81;5017710;28;45586;-85
2020/12/13 02:05:32;;;;;;;17.48;10.68;;;;;;;4.01;100.00;97847.63;5017141;28;45221;-85
2020/12/13 02:08:01;;;;;;;29.05;18.38;;;;;;;3.93;100.00;97855.28;5032291;28;45244;-85
2020/12/13 02:10:27;;;;;;;28.10;16.77;;;;;;;3.90;100.00;97858.16;5032855;28;45478;-85
2020/12/13 02:12:52;;;;;;;25.98;15.85;;;;;;;3.94;100.00;97852.53;5017592;28;46054;-85
2020/12/13 02:15:18;;;;;;;23.38;13.18;;;;;;;3.93;100.00;97852.66;5032797;28;45349;-85
2020/12/13 02:17:44;;;;;;;22.60;13.98;;;;;;;3.97;100.00;97850.63;5017719;28;45426;-84
2020/12/13 02:20:13;;;;;;;18.60;11.75;;;;;;;3.96;100.00;97854.22;5017426;28;45598;-84
2020/12/13 02:22:48;;;;;;;13.25;9.43;;;;;;;3.87;100.00;97853.16;5017286;28;46239;-85
2020/12/13 02:25:23;;;;;;;18.77;10.88;;;;;;;3.82;100.00;97863.22;5032618;28;45416;-85
2020/12/13 02:27:49;;;;;;;28.33;16.88;;;;;;;3.83;100.00;97859.63;5017605;28;45214;-84
2020/12/13 02:30:15;;;;;;;42.00;22.92;;;;;;;3.82;100.00;97861.44;5011042;28;45360;-84
2020/12/13 02:32:42;;;;;;;29.90;19.05;;;;;;;3.84;100.00;97858.66;5009255;28;45448;-84
2020/12/13 02:35:09;;;;;;;25.02;16.77;;;;;;;3.84;100.00;97858.66;5032529;28;46073;-84
2020/12/13 02:37:34;;;;;;;27.60;16.38;;;;;;;3.85;100.00;97857.69;5015824;28;45282;-84
2020/12/13 02:40:00;;;;;;;24.75;15.63;;;;;;;3.76;100.00;97857.47;5017045;28;45561;-84
2020/12/13 02:42:26;;;;;;;17.70;12.32;;;;;;;3.85;100.00;97855.91;5017280;28;46130;-85
2020/12/13 02:44:51;;;;;;;19.88;12.13;;;;;;;3.88;100.00;97855.66;5016974;28;45216;-84
2020/12/13 02:47:17;;;;;;;20.10;12.25;;;;;;;3.66;100.00;97846.03;5017388;28;45222;-85
2020/12/13 02:49:42;;;;;;;19.30;11.95;;;;;;;3.64;100.00;97850.56;5017123;28;45439;-85
2020/12/13 02:52:09;;;;;;;12.90;8.68;;;;;;;3.78;100.00;97858.19;5016911;28;46120;-85
2020/12/13 02:54:35;;;;;;;13.25;8.15;;;;;;;3.78;100.00;97849.47;5031786;28;45570;-84
2020/12/13 02:57:01;;;;;;;12.07;6.97;;;;;;;3.65;100.00;97855.72;5015826;28;45451;-85
2020/12/13 02:59:27;;;;;;;11.02;7.10;;;;;;;3.71;100.00;97856.19;5016858;28;45457;-84
2020/12/13 03:01:52;;;;;;;8.63;5.40;;;;;;;3.77;100.00;97853.88;5017006;28;46528;-85
2020/12/13 03:04:17;;;;;;;12.73;7.90;;;;;;;3.67;100.00;97850.31;5015505;28;45321;-85
2020/12/13 03:06:43;;;;;;;12.93;7.65;;;;;;;3.74;100.00;97850.69;5016830;28;45348;-85
2020/12/13 03:09:08;;;;;;;9.73;6.13;;;;;;;3.62;100.00;97860.38;5015519;28;45582;-84
2020/12/13 03:11:34;;;;;;;8.32;5.20;;;;;;;3.69;100.00;97858.94;5015683;28;48207;-85
2020/12/13 03:13:59;;;;;;;11.68;7.38;;;;;;;3.78;100.00;97860.00;5016775;28;45301;-84
2020/12/13 03:16:24;;;;;;;11.80;7.35;;;;;;;3.83;100.00;97851.72;5017031;28;45264;-84
2020/12/13 03:18:50;;;;;;;13.75;8.13;;;;;;;3.89;100.00;97861.75;5051173;28;45458;-85
2020/12/13 03:21:15;;;;;;;13.55;8.23;;;;;;;3.87;100.00;97842.63;5033299;28;46938;-84
2020/12/13 03:23:41;;;;;;;10.65;7.78;;;;;;;3.85;100.00;97845.41;5035303;28;45261;-85
2020/12/13 03:26:06;;;;;;;10.77;6.80;;;;;;;3.83;100.00;97851.72;5035496;28;45356;-85
2020/12/13 03:28:31;;;;;;;12.73;7.55;;;;;;;3.83;100.00;97846.47;5020095;28;45478;-84
2020/12/13 03:30:57;;;;;;;9.88;6.45;;;;;;;3.79;100.00;97845.88;5024087;28;46969;-85
2020/12/13 03:33:22;;;;;;;11.10;6.25;;;;;;;3.71;100.00;97848.31;5033090;28;45306;-84
2020/12/13 03:35:48;;;;;;;8.07;4.80;;;;;;;3.59;100.00;97840.44;5020055;28;45469;-84
2020/12/13 03:38:13;;;;;;;7.15;4.20;;;;;;;3.67;100.00;97836.34;5021729;28;45698;-85
2020/12/13 03:40:39;;;;;;;6.43;3.70;;;;;;;3.68;100.00;97841.47;5019814;28;45652;-84
2020/12/13 03:43:04;;;;;;;5.22;2.75;;;;;;;3.67;100.00;97846.88;5019591;28;45351;-84
2020/12/13 03:45:30;;;;;;;4.78;2.95;;;;;;;3.70;100.00;97847.44;5020130;28;45448;-85
2020/12/13 03:47:55;;;;;;;5.65;3.15;;;;;;;3.73;100.00;97846.38;5019667;28;45372;-85
2020/12/13 03:50:21;;;;;;;3.85;2.40;;;;;;;3.74;100.00;97853.31;5018468;28;47910;-85
2020/12/13 03:52:46;;;;;;;6.28;2.80;;;;;;;3.70;100.00;97855.34;5017970;28;45439;-85
2020/12/13 03:55:12;;;;;;;6.78;2.50;;;;;;;3.70;100.00;97852.72;5019841;28;45360;-85
2020/12/13 03:57:37;;;;;;;2.50;1.38;;;;;;;3.71;100.00;97854.38;5018406;28;45511;-85
2020/12/13 04:00:04;;;;;;;2.65;1.70;;;;;;;3.78;100.00;97858.19;5018307;28;48468;-85
2020/12/13 04:02:30;;;;;;;3.30;1.35;;;;;;;3.82;100.00;97850.91;5019409;28;45477;-84
2020/12/13 04:04:55;;;;;;;1.52;1.17;;;;;;;3.85;100.00;97848.03;5035046;28;45213;-85
2020/12/13 04:07:20;;;;;;;4.50;1.65;;;;;;;3.87;100.00;97851.38;5019263;28;45268;-85
2020/12/13 04:09:46;;;;;;;3.10;1.48;;;;;;;3.87;100.00;97853.16;5019565;28;45234;-84
2020/12/13 04:12:11;;;;;;;2.70;1.80;;;;;;;3.89;100.00;97851.22;5034521;28;45840;-85
2020/12/13 04:14:37;;;;;;;2.45;1.50;;;;;;;3.88;100.00;97852.19;5019711;28;45261;-85
2020/12/13 04:17:02;;;;;;;3.97;2.20;;;;;;;3.89;100.00;97861.75;5019186;28;45260;-84
2020/12/13 04:19:31;;;;;;;4.00;1.95;;;;;;;3.87;100.00;97854.00;5019277;28;45308;-84
2020/12/13 04:21:57;;;;;;;4.40;2.60;;;;;;;3.89;100.00;97859.13;5018773;28;45311;-84
2020/12/13 04:24:22;;;;;;;5.57;2.42;;;;;;;3.87;100.00;97861.03;5034812;28;45339;-85
2020/12/13 04:26:47;;;;;;;3.97;2.28;;;;;;;3.85;100.00;97857.69;5019116;28;45464;-85
2020/12/13 04:29:13;;;;;;;5.53;2.60;;;;;;;3.85;100.00;97853.28;5018242;28;45381;-85
2020/12/13 04:31:38;;;;;;;5.50;2.35;;;;;;;3.85;100.00;97860.34;5020645;28;45848;-84
2020/12/13 04:34:03;;;;;;;4.68;2.17;;;;;;;3.84;100.00;97851.63;5034511;28;45265;-84
2020/12/13 04:36:29;;;;;;;2.92;2.00;;;;;;;3.81;100.00;97854.50;5034028;28;45278;-83
2020/12/13 04:38:54;;;;;;;4.95;1.98;;;;;;;3.86;100.00;97854.97;5018838;28;45235;-84
2020/12/13 04:41:20;;;;;;;5.50;2.30;;;;;;;3.86;100.00;97849.69;5018809;28;45333;-85
2020/12/13 04:43:46;;;;;;;5.22;2.28;;;;;;;3.88;100.00;97852.19;5018984;28;45231;-84
2020/12/13 04:46:11;;;;;;;3.90;1.75;;;;;;;3.88;100.00;97853.03;5018595;28;45474;-84
2020/12/13 04:48:37;;;;;;;5.93;2.95;;;;;;;3.85;100.00;97855.06;5018873;28;45273;-84
2020/12/13 04:51:03;;;;;;;4.00;2.10;;;;;;;3.86;100.00;97854.09;5018365;28;45237;-84
2020/12/13 04:53:29;;;;;;;4.88;1.80;;;;;;;3.84;100.00;97856.88;5019126;28;45487;-84
2020/12/13 04:55:59;;;;;;;6.53;2.05;;;;;;;3.86;99.96;97854.09;5018548;28;45439;-83
2020/12/13 04:58:26;;;;;;;3.85;1.75;;;;;;;3.88;100.00;97854.81;5018616;28;45478;-84
2020/12/13 05:00:57;;;;;;;4.72;2.25;;;;;;;3.86;100.00;97847.06;5018360;28;45371;-82
2020/12/13 05:03:24;;;;;;;6.38;3.35;;;;;;;3.85;100.00;97853.28;5018874;28;45249;-83
2020/12/13 05:05:51;;;;;;;5.57;2.47;;;;;;;3.87;100.00;97853.16;5033521;28;45669;-83
2020/12/13 05:08:16;;;;;;;4.95;1.40;;;;;;;3.80;99.95;97851.00;5018583;28;45263;-83
2020/12/13 05:10:42;;;;;;;6.47;2.80;;;;;;;3.83;100.00;97847.31;5018268;28;45280;-83
2020/12/13 05:13:09;;;;;;;2.38;1.65;;;;;;;3.78;100.00;97842.41;5033977;28;45265;-83
2020/12/13 05:15:35;;;;;;;5.40;2.20;;;;;;;3.76;100.00;97848.78;5018534;28;45534;-83
2020/12/13 05:18:01;;;;;;;4.22;2.03;;;;;;;3.76;100.00;97833.81;5018161;28;46427;-83
2020/12/13 05:20:27;;;;;;;5.15;2.00;;;;;;;3.71;100.00;97830.72;5016145;28;45747;-83
2020/12/13 05:22:55;;;;;;;5.03;2.25;;;;;;;3.64;100.00;97833.00;5050220;28;45340;-83
2020/12/13 05:25:31;;;;;;;6.47;1.70;;;;;;;3.64;99.80;97832.16;5018504;28;45381;-83
2020/12/13 05:28:00;;;;;;;5.85;2.88;;;;;;;3.64;99.39;97830.38;5018192;28;45408;-83
2020/12/13 05:30:41;;;;;;;5.63;1.95;;;;;;;3.57;99.78;97826.56;5011471;28;45260;-82
2020/12/13 05:33:18;;;;;;;5.35;1.67;;;;;;;3.51;99.75;97819.13;5012613;28;45633;-82
2020/12/13 05:35:43;;;;;;;7.05;2.10;;;;;;;3.48;100.00;97817.59;5050144;28;45566;-83
2020/12/13 05:38:11;;;;;;;3.63;1.95;;;;;;;3.53;99.32;97813.78;5017701;28;45996;-82
2020/12/13 05:40:37;;;;;;;4.50;1.65;;;;;;;3.45;99.48;97811.75;5017757;28;45414;-82
2020/12/13 05:43:16;;;;;;;5.13;2.20;;;;;;;3.49;99.40;97814.03;5033207;28;45415;-82
2020/12/13 05:48:44;;;;;;;4.95;2.15;;;;;;;3.44;99.14;97805.66;5006622;28;45309;-81
2020/12/13 05:53:44;;;;;;;7.28;2.67;;;;;;;3.41;100.00;97820.81;5018061;28;45457;-82
2020/12/13 05:56:12;;;;;;;6.22;2.85;;;;;;;3.30;100.00;97822.50;5017696;28;45533;-80
2020/12/13 05:58:37;;;;;;;12.05;6.10;;;;;;;3.15;100.00;97815.84;5017548;28;45343;-82
2020/12/13 06:01:05;;;;;;;10.75;5.70;;;;;;;3.18;100.00;97821.69;5032841;28;45258;-81
2020/12/13 06:03:35;;;;;;;9.98;5.80;;;;;;;3.16;100.00;97817.50;5015383;28;45404;-82
2020/12/13 06:06:07;;;;;;;10.20;5.57;;;;;;;3.11;100.00;97811.78;5015133;28;45525;-82
2020/12/13 06:08:55;;;;;;;12.68;6.13;;;;;;;2.96;100.00;97814.63;5015253;28;47303;-81
2020/12/13 06:11:21;;;;;;;18.42;9.00;;;;;;;2.86;100.00;97821.56;5016932;28;45213;-81
2020/12/13 06:13:53;;;;;;;17.33;9.93;;;;;;;2.99;100.00;97814.41;5015652;28;45293;-82
2020/12/13 06:16:19;;;;;;;54.30;15.45;;;;;;;2.98;100.00;97822.38;5035322;28;45555;-81
2020/12/13 06:18:45;;;;;;;27.73;12.45;;;;;;;2.97;100.00;97823.34;5016608;28;45680;-81
2020/12/13 06:21:12;;;;;;;70.47;15.68;;;;;;;2.85;100.00;97828.59;5013574;28;45457;-81
2020/12/13 06:23:45;;;;;;;43.22;14.30;;;;;;;2.85;100.00;97825.13;5015545;28;45500;-81
2020/12/13 06:26:10;;;;;;;41.75;14.82;;;;;;;2.82;100.00;97822.75;5016647;28;45257;-81
2020/12/13 06:28:36;;;;;;;59.88;17.13;;;;;;;2.75;100.00;97828.47;5015581;28;45919;-81
2020/12/13 06:31:03;;;;;;;53.90;16.23;;;;;;;2.82;100.00;97833.25;5014166;28;45398;-81
2020/12/13 06:33:28;;;;;;;58.17;17.67;;;;;;;2.82;100.00;97830.63;5007786;28;45418;-81
2020/12/13 06:35:54;;;;;;;36.38;17.23;;;;;;;2.63;100.00;97842.50;5031219;28;45821;-81
2020/12/13 06:38:19;;;;;;;30.58;15.68;;;;;;;2.69;100.00;97849.09;5013246;28;45936;-81
2020/12/13 06:40:48;;;;;;;25.45;14.63;;;;;;;2.67;100.00;97848.38;5013373;28;45598;-81
2020/12/13 06:43:17;;;;;;;29.70;14.88;;;;;;;2.80;100.00;97853.53;5014080;28;45430;-82
2020/12/13 06:45:42;;;;;;;29.92;15.40;;;;;;;2.80;100.00;97861.44;5015606;28;46295;-82
2020/12/13 06:48:08;;;;;;;29.80;16.20;;;;;;;2.72;100.00;97869.88;5016275;28;46662;-83
2020/12/13 06:50:33;;;;;;;34.25;18.10;;;;;;;2.91;100.00;97871.94;5016306;28;45478;-81
2020/12/13 06:52:58;;;;;;;32.80;16.48;;;;;;;2.98;100.00;97882.81;5016754;28;45246;-81
2020/12/13 06:55:33;;;;;;;50.17;29.95;;;;;;;2.99;100.00;97880.09;5030506;28;45524;-81
2020/12/13 06:58:03;;;;;;;35.03;20.85;;;;;;;3.02;100.00;97881.63;5033011;28;48472;-80
2020/12/13 07:00:47;;;;;;;31.63;19.83;;;;;;;3.07;100.00;97879.47;5047378;28;45556;-80
2020/12/13 07:03:24;;;;;;;26.13;15.73;;;;;;;3.11;100.00;97877.47;5019875;28;45524;-80
2020/12/13 07:05:54;;;;;;;23.73;14.02;;;;;;;3.06;100.00;97883.06;5014807;28;45517;-80
2020/12/13 07:08:22;;;;;;;24.63;14.75;;;;;;;3.06;100.00;97888.31;5015764;28;45982;-80
2020/12/13 07:10:51;;;;;;;24.77;15.32;;;;;;;3.18;100.00;97884.78;5018089;28;45522;-81
2020/12/13 07:13:20;;;;;;;22.45;13.55;;;;;;;3.17;100.00;97879.63;5016520;28;45511;-80
2020/12/13 07:16:30;;;;;;;24.17;15.13;;;;;;;3.20;100.00;97882.88;5017102;28;45560;-81
2020/12/13 07:18:46;;;;;;;32.38;19.70;;;;;;;3.26;100.00;97885.97;5016074;28;46343;-81
2020/12/13 07:21:15;;;;;;;39.47;26.08;;;;;;;3.29;100.00;97886.56;5018874;28;45392;-81
2020/12/13 07:23:41;;;;;;;42.53;31.90;;;;;;;3.24;100.00;97882.63;5031729;28;45321;-80
2020/12/13 07:26:07;;;;;;;32.58;19.55;;;;;;;3.19;100.00;97891.69;5019620;28;45316;-80
2020/12/13 07:28:32;;;;;;;25.52;15.15;;;;;;;3.19;100.00;97890.84;5019171;28;45883;-80
2020/12/13 07:31:05;;;;;;;27.75;18.58;;;;;;;3.25;100.00;97894.81;5018797;28;45519;-80
2020/12/13 07:33:31;;;;;;;25.25;16.58;;;;;;;3.20;100.00;97906.50;5019620;28;45377;-80
2020/12/13 07:35:57;;;;;;;20.45;13.65;;;;;;;3.21;100.00;97910.81;5017748;28;45546;-79
2020/12/13 07:38:22;;;;;;;22.90;14.65;;;;;;;3.28;100.00;97907.72;5018683;28;45426;-80
2020/12/13 07:40:49;;;;;;;20.02;13.27;;;;;;;3.26;100.00;97907.00;5019057;28;45517;-82
2020/12/13 07:43:14;;;;;;;18.92;11.70;;;;;;;3.22;100.00;97911.63;5017911;28;45455;-81
2020/12/13 07:45:40;;;;;;;20.63;14.50;;;;;;;3.25;100.00;97915.84;5019247;28;45434;-81
2020/12/13 07:48:05;;;;;;;14.98;10.13;;;;;;;3.24;100.00;97909.72;5017955;28;45343;-80
2020/12/13 07:50:44;;;;;;;16.73;11.70;;;;;;;3.29;100.00;97907.59;5018891;28;45328;-80
2020/12/13 07:53:10;;;;;;;17.25;9.15;;;;;;;3.34;100.00;97915.94;5049024;28;45362;-80
2020/12/13 07:55:42;;;;;;;15.70;9.27;;;;;;;3.35;100.00;97917.63;5017800;28;45414;-80
2020/12/13 07:58:08;;;;;;;17.08;10.15;;;;;;;3.41;100.00;97918.09;5029647;28;47900;-79
2020/12/13 08:00:33;;;;;;;13.48;8.90;;;;;;;3.41;100.00;97913.69;5017637;28;45341;-80
2020/12/13 08:02:59;;;;;;;16.00;10.02;;;;;;;3.48;100.00;97925.41;5018936;28;45550;-80
2020/12/13 08:05:28;;;;;;;16.13;10.45;;;;;;;3.50;100.00;97914.75;5034249;28;45549;-79
2020/12/13 08:08:00;;;;;;;14.60;8.82;;;;;;;3.52;100.00;97931.25;5018287;28;46133;-79
2020/12/13 08:10:28;;;;;;;17.52;8.85;;;;;;;3.58;100.00;97922.91;5018661;28;45351;-80
2020/12/13 08:12:54;;;;;;;13.45;8.27;;;;;;;3.62;100.00;97915.59;5018824;28;45336;-79
2020/12/13 08:15:19;;;;;;;15.88;9.38;;;;;;;3.52;100.00;97915.47;5018778;28;45422;-80
2020/12/13 08:17:58;;;;;;;13.10;8.70;;;;;;;3.65;100.00;97932.00;5016054;28;45496;-80
2020/12/13 08:20:26;;;;;;;34.22;17.73;;;;;;;3.47;100.00;97929.00;5014587;28;45410;-80
2020/12/13 08:22:53;;;;;;;29.38;16.17;;;;;;;3.18;100.00;97933.84;5018547;28;45508;-80
2020/12/13 08:25:19;;;;;;;27.85;15.60;;;;;;;3.40;100.00;97940.09;5018491;28;45527;-80
2020/12/13 08:27:45;;;;;;;24.52;14.90;;;;;;;3.55;100.00;97938.06;5017395;28;46985;-80
2020/12/13 08:30:10;;;;;;;24.65;15.88;;;;;;;3.50;100.00;97948.94;5018438;28;45522;-79
2020/12/13 08:32:36;;;;;;;28.85;16.17;;;;;;;3.31;100.00;97952.16;5018130;28;45490;-80
2020/12/13 08:35:13;;;;;;;25.85;15.10;;;;;;;3.53;100.00;97963.66;5018433;28;45545;-81
2020/12/13 08:37:40;;;;;;;31.30;16.13;;;;;;;3.29;100.00;97964.59;5009630;28;47820;-80
2020/12/13 08:40:09;;;;;;;25.20;13.98;;;;;;;3.44;100.00;97966.03;5017738;28;45336;-79
2020/12/13 08:42:35;;;;;;;25.73;14.93;;;;;;;3.59;100.00;97964.03;5018358;28;45276;-80
2020/12/13 08:45:01;;;;;;;29.65;16.60;;;;;;;3.45;100.00;97959.81;5017667;28;45709;-80
2020/12/13 08:47:32;;;;;;;28.80;16.20;;;;;;;3.51;100.00;97966.38;5012267;28;45459;-80
2020/12/13 08:49:57;;;;;;;30.50;16.60;;;;;;;3.67;100.00;97966.03;5010629;28;45324;-80
2020/12/13 08:52:33;;;;;;;31.42;17.08;;;;;;;3.68;100.00;97959.81;5012213;28;45359;-79
2020/12/13 08:55:04;;;;;;;30.13;17.15;;;;;;;3.74;100.00;97964.59;5018788;28;45585;-79
2020/12/13 08:57:36;;;;;;;;;;;;;;;3.85;100.00;97968.19;5016897;28;46130;-79
2020/12/13 09:00:16;;;;;;;39.35;22.02;;;;;;;3.96;100.00;97975.25;5009646;28;45488;-80
2020/12/13 09:02:59;;;;;;;34.25;19.55;;;;;;;3.62;100.00;97979.56;5020134;28;45341;-80
2020/12/13 09:05:29;;;;;;;26.95;18.75;;;;;;;3.64;100.00;97985.53;5021721;28;45585;-79
2020/12/13 09:07:56;;;;;;;27.75;17.38;;;;;;;3.86;100.00;97983.03;5017872;28;45359;-80
2020/12/13 09:10:22;;;;;;;22.65;14.48;;;;;;;3.72;100.00;97989.38;5017696;28;45365;-80
2020/12/13 09:12:47;;;;;;;23.63;15.10;;;;;;;3.89;100.00;97991.53;5017910;28;45462;-79
2020/12/13 09:15:21;;;;;;;26.00;16.63;;;;;;;3.97;100.00;97987.44;5015726;28;45582;-79
2020/12/13 09:17:58;;;;;;;27.15;16.70;;;;;;;3.90;100.00;97989.72;5032891;28;47028;-79
2020/12/13 09:20:31;;;;;;;27.05;17.48;;;;;;;3.70;100.00;97989.47;5013804;28;45252;-79
2020/12/13 09:23:07;;;;;;;27.00;16.80;;;;;;;3.79;100.00;97986.13;5017915;28;45489;-78
2020/12/13 09:25:44;;;;;;;25.58;16.45;;;;;;;3.90;100.00;97987.09;5017493;28;45638;-79
2020/12/13 09:28:11;;;;;;;28.48;17.20;;;;;;;3.87;100.00;97982.91;5017515;28;45383;-79
2020/12/13 09:30:36;;;;;;;28.75;16.83;;;;;;;3.87;100.00;97980.28;5016330;28;45607;-79
2020/12/13 09:33:02;;;;;;;26.38;15.82;;;;;;;3.91;100.00;97984.34;5017278;28;45300;-79
2020/12/13 09:35:30;;;;;;;26.98;16.77;;;;;;;3.88;100.00;97984.59;5016059;28;45476;-79
2020/12/13 09:37:56;;;;;;;29.67;18.90;;;;;;;3.71;100.00;97975.38;5016618;28;45519;-80
2020/12/13 09:40:21;;;;;;;42.65;24.58;;;;;;;3.44;100.00;97979.19;5013604;28;45376;-80
2020/12/13 09:42:47;;;;;;;25.75;15.75;;;;;;;3.15;100.00;97976.13;5017227;28;45486;-82
2020/12/13 09:45:12;;;;;;;24.45;15.73;;;;;;;3.40;100.00;97982.16;5023945;28;45491;-82
2020/12/13 09:47:38;;;;;;;25.45;15.77;;;;;;;3.59;100.00;97966.66;5031963;28;46744;-81
2020/12/13 09:50:04;;;;;;;23.95;15.25;;;;;;;3.65;100.00;97984.59;5017375;28;45266;-79
2020/12/13 09:52:30;;;;;;;17.23;11.52;;;;;;;3.51;100.00;97979.53;5014460;28;45353;-80
2020/12/13 09:54:57;;;;;;;14.13;9.52;;;;;;;3.66;100.00;97982.78;5007010;28;45619;-79
2020/12/13 09:57:22;;;;;;;14.38;9.05;;;;;;;3.89;100.00;97980.16;5016984;28;45473;-79
2020/12/13 09:59:47;;;;;;;18.38;10.88;;;;;;;4.04;100.00;97986.00;5032446;28;45835;-79
2020/12/13 10:02:13;;;;;;;26.27;17.00;;;;;;;4.05;100.00;97980.63;5017109;28;45474;-79
2020/12/13 10:04:38;;;;;;;25.35;17.20;;;;;;;4.11;100.00;97976.66;5030036;28;45491;-79
2020/12/13 10:08:56;;;;;;;28.95;18.08;;;;;;;3.95;100.00;97990.19;5015115;28;47174;-80
2020/12/13 10:09:55;;;;;;;30.38;19.45;;;;;;;4.08;100.00;97988.28;5005314;28;45349;-80
2020/12/13 10:12:22;;;;;;;32.35;19.98;;;;;;;4.24;100.00;97992.34;5016268;28;45500;-79
2020/12/13 10:14:48;;;;;;;34.92;22.13;;;;;;;4.19;100.00;97994.50;5016982;28;45403;-80
2020/12/13 10:17:13;;;;;;;30.95;19.83;;;;;;;4.11;100.00;97996.91;5016515;28;46398;-79
2020/12/13 10:19:39;;;;;;;25.17;16.15;;;;;;;4.08;100.00;97990.91;5015496;28;45591;-79
2020/12/13 10:22:04;;;;;;;23.02;14.45;;;;;;;3.88;100.00;97989.00;5015422;28;45405;-79
2020/12/13 10:24:29;;;;;;;18.08;11.43;;;;;;;3.94;100.00;97989.38;5017189;28;45255;-79
2020/12/13 10:26:56;;;;;;;15.40;10.13;;;;;;;4.16;100.00;97990.28;5016381;28;46201;-79
2020/12/13 10:29:21;;;;;;;13.75;9.13;;;;;;;4.09;100.00;97986.47;5020422;28;45423;-80
2020/12/13 10:31:47;;;;;;;11.52;8.15;;;;;;;4.15;100.00;97987.81;5018540;28;45300;-79
2020/12/13 10:34:14;;;;;;;14.15;9.38;;;;;;;4.36;100.00;97979.97;5019248;28;45546;-79
2020/12/13 10:36:40;;;;;;;11.88;8.40;;;;;;;4.43;100.00;97981.19;5019750;28;46146;-79
2020/12/13 10:39:07;;;;;;;11.68;7.35;;;;;;;4.48;99.87;97983.41;5018567;28;45487;-79
2020/12/13 10:41:33;;;;;;;10.77;6.93;;;;;;;4.45;100.00;97988.94;5019993;28;45334;-79
2020/12/13 10:43:59;;;;;;;11.80;6.80;;;;;;;4.50;99.61;97984.97;5019966;28;45269;-79
2020/12/13 10:46:24;;;;;;;8.43;5.82;;;;;;;4.53;97.21;97981.25;5019891;28;46367;-78
2020/12/13 10:48:50;;;;;;;10.82;7.00;;;;;;;4.85;99.05;97988.31;5020298;28;45417;-78
2020/12/13 10:51:17;;;;;;;11.27;5.68;;;;;;;4.94;98.30;97989.38;5019249;28;45645;-78
2020/12/13 10:53:44;;;;;;;7.25;5.30;;;;;;;5.10;97.53;97988.94;5020291;28;45414;-78
2020/12/13 10:56:10;;;;;;;9.77;6.30;;;;;;;5.22;98.16;97987.91;5019658;28;45494;-79
2020/12/13 10:58:35;;;;;;;8.55;5.43;;;;;;;5.27;96.58;97990.16;5019829;28;45411;-79
2020/12/13 11:01:01;;;;;;;6.63;4.88;;;;;;;5.34;96.82;97990.50;5020021;28;45493;-79
2020/12/13 11:03:27;;;;;;;7.93;4.85;;;;;;;5.42;95.72;97985.41;5029575;28;45550;-79
2020/12/13 11:05:53;;;;;;;8.85;4.65;;;;;;;5.28;95.97;97978.63;5018434;28;46042;-78
2020/12/13 11:08:18;;;;;;;7.05;4.75;;;;;;;5.11;94.78;97980.91;5019707;28;45399;-79
2020/12/13 11:10:46;;;;;;;11.77;5.57;;;;;;;5.42;95.96;97977.47;5020001;28;45297;-78
2020/12/13 11:13:13;;;;;;;6.55;4.32;;;;;;;5.48;96.23;97979.59;5013954;28;45511;-79
2020/12/13 11:15:38;;;;;;;8.85;4.55;;;;;;;5.51;95.13;97976.69;5011230;28;47834;-79
2020/12/13 11:18:03;;;;;;;9.68;4.55;;;;;;;5.51;94.99;97974.06;5018810;28;45387;-79
2020/12/13 11:20:29;;;;;;;9.57;4.47;;;;;;;5.67;94.22;97978.03;5019294;28;45409;-79
2020/12/13 11:22:54;;;;;;;7.25;3.80;;;;;;;5.39;92.26;97968.06;5019866;28;45632;-79
2020/12/13 11:25:20;;;;;;;6.20;3.05;;;;;;;5.38;90.62;97970.81;5019345;28;46180;-79
2020/12/13 11:27:45;;;;;;;4.22;2.22;;;;;;;5.36;87.39;97970.94;5018926;28;45585;-79
2020/12/13 11:30:11;;;;;;;5.68;3.15;;;;;;;5.49;90.64;97973.38;5034116;28;45537;-79
2020/12/13 11:32:38;;;;;;;6.05;3.03;;;;;;;5.60;91.19;97968.97;5016489;28;45541;-78